Indiana, PA

1:21 AM EST on February 22, 2017 (GMT -0500)
Indiana County-Stewart

Weather History for KIDI - January, 2013

Change the Weather History Date:

Saturday, January 5, 2013

  Actual Average Record
Temperature  
Mean Temperature 28 °F -  
Max Temperature 32 °F 37 °F 64 °F (1993)
Min Temperature 24 °F 17 °F -6 °F (1968)
Degree Days  
Heating Degree Days 37    
Moisture  
Dew Point 24 °F    
Average Humidity 86    
Maximum Humidity 100    
Minimum Humidity 75    
Precipitation  
Precipitation 0.00 in - - ()
Sea Level Pressure  
Sea Level Pressure 30.23 in    
Wind  
Wind Speed 10 mph (West)    
Max Wind Speed 16 mph    
Max Gust Speed 23 mph    
Visibility 10 miles    
Events      
Averages and records for this station are not official NWS values.
T = Trace of Precipitation, MM = Missing Value Source: NWS Daily Summary

Daily Weather History Graph

Daily Weather History Graph

Search for Another Location

Airport or City:

Trip Planner

Search our weather history database for the weather conditions in past years. The results will help you decide how hot, cold, wet, or windy it might be!

Date:

Astronomy

Jan. 05, 2013 Rise Set
Actual Time 7:40 AM EST 5:03 PM EST
Civil Twilight 7:09 AM EST 5:34 PM EST
Nautical Twilight 6:35 AM EST 6:08 PM EST
Astronomical Twilight 6:02 AM EST 6:41 PM EST
Moon 12:43 AM EST (1/5) 11:53 AM EST (1/5)
Length of Visible Light 10h 24m
Length of Day
9h 23m
Last Quarter, 44% of the Moon is Illuminated
Jan 5
Last Quarter
Jan 11
New
Jan 18
First Quarter
Jan 26
Full
Feb 3
Last Quarter

Hourly Weather History & Observations

Time (EST) Temp. Windchill Dew Point Humidity Pressure Visibility Wind Dir Wind Speed Gust Speed Precip Events Conditions
12:15 AM 26.6 °F 14.3 °F 21.2 °F 80% 30.17 in 10.0 mi West 16.1 mph 23.0 mph N/A   Unknown
12:35 AM 24.8 °F 14.0 °F 19.4 °F 80% 30.18 in 10.0 mi West 11.5 mph 19.6 mph N/A   Unknown
12:55 AM 24.8 °F 12.9 °F 19.4 °F 80% 30.18 in 10.0 mi West 13.8 mph 20.7 mph N/A   Unknown
1:15 AM 24.8 °F 13.4 °F 21.2 °F 86% 30.19 in 10.0 mi West 12.7 mph 21.9 mph N/A   Unknown
1:35 AM 24.8 °F 13.4 °F 21.2 °F 86% 30.19 in 10.0 mi West 12.7 mph 18.4 mph N/A   Unknown
1:55 AM 24.8 °F 12.4 °F 21.2 °F 86% 30.21 in 10.0 mi West 15.0 mph 20.7 mph N/A   Unknown
2:15 AM 24.8 °F 11.9 °F 21.2 °F 86% 30.21 in 10.0 mi West 16.1 mph 21.9 mph N/A   Unknown
2:35 AM 24.8 °F 14.6 °F 21.2 °F 86% 30.22 in 10.0 mi West 10.4 mph 17.3 mph N/A   Unknown
2:55 AM 24.8 °F 12.4 °F 21.2 °F 86% 30.22 in 10.0 mi West 15.0 mph 19.6 mph N/A   Unknown
3:15 AM 24.8 °F 13.4 °F 21.2 °F 86% 30.23 in 10.0 mi WNW 12.7 mph 21.9 mph N/A   Unknown
3:35 AM 24.8 °F 13.4 °F 21.2 °F 86% 30.23 in 10.0 mi West 12.7 mph 18.4 mph N/A   Unknown
3:55 AM 24.8 °F 14.6 °F 21.2 °F 86% 30.24 in 10.0 mi WNW 10.4 mph - N/A   Unknown
4:15 AM 24.8 °F 14.0 °F 21.2 °F 86% 30.24 in 10.0 mi WNW 11.5 mph 17.3 mph N/A   Unknown
4:35 AM 24.8 °F 14.6 °F 21.2 °F 86% 30.25 in 10.0 mi WNW 10.4 mph 23.0 mph N/A   Unknown
4:55 AM 24.8 °F 11.9 °F 21.2 °F 86% 30.26 in 10.0 mi West 16.1 mph 20.7 mph N/A   Unknown
5:15 AM 24.8 °F 12.9 °F 21.2 °F 86% 30.26 in 10.0 mi West 13.8 mph 18.4 mph N/A   Unknown
5:35 AM 24.8 °F 15.3 °F 21.2 °F 86% 30.26 in 10.0 mi West 9.2 mph - N/A   Unknown
5:55 AM 24.8 °F 14.0 °F 21.2 °F 86% 30.27 in 10.0 mi West 11.5 mph 17.3 mph N/A   Unknown
6:15 AM 24.8 °F 12.9 °F 21.2 °F 86% 30.28 in 10.0 mi WNW 13.8 mph 19.6 mph N/A   Unknown
6:35 AM 24.8 °F 14.0 °F 21.2 °F 86% 30.28 in 10.0 mi West 11.5 mph - N/A   Unknown
6:55 AM 24.8 °F 16.1 °F 21.2 °F 86% 30.29 in 10.0 mi West 8.1 mph 11.5 mph N/A   Unknown
7:15 AM 24.8 °F 14.6 °F 23.0 °F 93% 30.29 in 10.0 mi West 10.4 mph - N/A   Unknown
7:35 AM 24.8 °F 16.1 °F 23.0 °F 93% 30.29 in 10.0 mi West 8.1 mph - N/A   Unknown
8:15 AM 24.8 °F 16.1 °F 23.0 °F 93% 30.32 in 10.0 mi West 8.1 mph - N/A   Unknown
8:35 AM 24.8 °F 16.9 °F 23.0 °F 93% 30.32 in 10.0 mi West 6.9 mph - N/A   Unknown
8:55 AM 24.8 °F 16.9 °F 23.0 °F 93% 30.34 in 10.0 mi West 6.9 mph - N/A   Unknown
9:15 AM 24.8 °F 16.9 °F 24.8 °F 100% 30.34 in 10.0 mi West 6.9 mph - N/A   Unknown
9:35 AM 24.8 °F 15.3 °F 24.8 °F 100% 30.34 in 10.0 mi WSW 9.2 mph - N/A   Unknown
9:55 AM 24.8 °F 15.3 °F 23.0 °F 93% 30.34 in 10.0 mi West 9.2 mph - N/A   Unknown
10:15 AM 26.6 °F 19.1 °F 23.0 °F 86% 30.34 in 10.0 mi West 6.9 mph - N/A   Unknown
10:55 AM 26.6 °F 19.1 °F 23.0 °F 86% 30.34 in 10.0 mi West 6.9 mph - N/A   Unknown
11:15 AM 26.6 °F 17.5 °F 23.0 °F 86% 30.32 in 10.0 mi WSW 9.2 mph - N/A   Unknown
12:15 PM 26.6 °F 19.1 °F 24.8 °F 93% 30.30 in 10.0 mi WSW 6.9 mph - N/A   Unknown
12:35 PM 26.6 °F 19.1 °F 24.8 °F 93% 30.30 in 10.0 mi West 6.9 mph - N/A   Unknown
12:55 PM 28.4 °F 23.3 °F 24.8 °F 86% 30.28 in 10.0 mi WSW 4.6 mph - N/A   Unknown
1:15 PM 28.4 °F 19.7 °F 24.8 °F 86% 30.26 in 10.0 mi West 9.2 mph - N/A   Unknown
1:35 PM 28.4 °F 21.2 °F 24.8 °F 86% 30.25 in 10.0 mi West 6.9 mph - N/A   Unknown
1:55 PM 30.2 °F 24.3 °F 24.8 °F 80% 30.24 in 10.0 mi WSW 5.8 mph - N/A   Unknown
2:15 PM 30.2 °F 23.4 °F 24.8 °F 80% 30.24 in 10.0 mi WSW 6.9 mph - N/A   Unknown
2:35 PM 32.0 °F 25.6 °F 24.8 °F 75% 30.23 in 10.0 mi WSW 6.9 mph - N/A   Unknown
2:55 PM 32.0 °F 26.4 °F 24.8 °F 75% 30.23 in 10.0 mi West 5.8 mph - N/A   Unknown
3:15 PM 32.0 °F 25.6 °F 24.8 °F 75% 30.23 in 10.0 mi West 6.9 mph - N/A   Unknown
3:35 PM 30.2 °F 26.7 °F 26.6 °F 86% 30.24 in 10.0 mi West 3.5 mph - N/A   Unknown
3:55 PM 32.0 °F 27.5 °F 26.6 °F 80% 30.23 in 10.0 mi WSW 4.6 mph - N/A   Unknown
4:15 PM 32.0 °F 28.7 °F 26.6 °F 80% 30.22 in 10.0 mi WSW 3.5 mph - N/A   Unknown
4:35 PM 32.0 °F - 26.6 °F 80% 30.21 in 10.0 mi Calm Calm - N/A   Unknown
4:55 PM 30.2 °F 25.4 °F 26.6 °F 86% 30.21 in 10.0 mi SSW 4.6 mph - N/A   Unknown
5:15 PM 30.2 °F - 24.8 °F 80% 30.21 in 10.0 mi Calm Calm - N/A   Unknown
5:55 PM 28.4 °F - 24.8 °F 86% 30.20 in 10.0 mi Calm Calm - N/A   Unknown
6:15 PM 28.4 °F - 24.8 °F 86% 30.20 in 10.0 mi Calm Calm - N/A   Unknown
6:35 PM 28.4 °F - 24.8 °F 86% 30.19 in 10.0 mi Calm Calm - N/A   Unknown
6:55 PM 28.4 °F - 24.8 °F 86% 30.19 in 10.0 mi Calm Calm - N/A   Unknown
7:15 PM 28.4 °F 24.6 °F 24.8 °F 86% 30.18 in 10.0 mi SSW 3.5 mph - N/A   Unknown
7:35 PM 28.4 °F 24.6 °F 24.8 °F 86% 30.18 in 10.0 mi SSW 3.5 mph - N/A   Unknown
7:55 PM 30.2 °F 26.7 °F 24.8 °F 80% 30.17 in 10.0 mi SW 3.5 mph - N/A   Unknown
8:15 PM 30.2 °F - 26.6 °F 86% 30.17 in 10.0 mi Calm Calm - N/A   Unknown
8:55 PM 30.2 °F - 26.6 °F 86% 30.15 in 10.0 mi Calm Calm - N/A   Unknown
9:15 PM 30.2 °F 26.7 °F 26.6 °F 86% 30.16 in 10.0 mi WNW 3.5 mph - N/A   Unknown
9:35 PM 28.4 °F 24.6 °F 26.6 °F 93% 30.16 in 10.0 mi West 3.5 mph - N/A   Unknown
9:55 PM 28.4 °F 23.3 °F 26.6 °F 93% 30.17 in 10.0 mi West 4.6 mph - N/A   Unknown
10:15 PM 30.2 °F 26.7 °F 26.6 °F 86% 30.15 in 10.0 mi WSW 3.5 mph - N/A   Unknown
10:35 PM 30.2 °F - 26.6 °F 86% 30.14 in 10.0 mi Calm Calm - N/A   Unknown
10:55 PM 30.2 °F 26.7 °F 26.6 °F 86% 30.14 in 10.0 mi WSW 3.5 mph - N/A   Unknown
11:15 PM 30.2 °F 24.3 °F 26.6 °F 86% 30.13 in 10.0 mi SW 5.8 mph - N/A   Unknown
11:35 PM 30.2 °F 25.4 °F 26.6 °F 86% 30.12 in 10.0 mi WSW 4.6 mph - N/A   Unknown
11:55 PM 30.2 °F 24.3 °F 26.6 °F 86% 30.13 in 10.0 mi WSW 5.8 mph - N/A   Unknown